createdAt,value
2018-12-30T00:00:28.510Z,10.44
2018-12-30T00:05:33.885Z,10.45
2018-12-30T00:10:39.322Z,10.39
2018-12-30T00:15:44.676Z,10.22
2018-12-30T00:20:49.979Z,10.14
2018-12-30T00:25:55.609Z,10.30
2018-12-30T00:31:00.894Z,10.32
2018-12-30T00:36:06.439Z,10.27
2018-12-30T00:41:11.867Z,10.20
2018-12-30T00:46:17.198Z,10.19
2018-12-30T00:51:22.556Z,10.25
2018-12-30T00:56:28.002Z,10.38
2018-12-30T01:01:33.484Z,10.26
2018-12-30T01:06:38.886Z,10.08
2018-12-30T01:11:44.305Z,10.19
2018-12-30T01:16:49.471Z,10.25
2018-12-30T01:21:54.918Z,10.31
2018-12-30T01:27:00.207Z,10.32
2018-12-30T01:32:05.532Z,10.47
2018-12-30T01:37:10.753Z,10.55
2018-12-30T01:42:16.124Z,10.65
2018-12-30T01:47:21.433Z,10.70
2018-12-30T01:52:26.755Z,10.85
2018-12-30T01:57:32.059Z,10.96
2018-12-30T02:02:37.404Z,10.95
2018-12-30T02:07:42.674Z,10.73
2018-12-30T02:12:48.098Z,10.95
2018-12-30T02:17:53.448Z,10.87
2018-12-30T02:22:58.794Z,10.82
2018-12-30T02:33:15.388Z,10.81
2018-12-30T02:38:20.686Z,10.77
2018-12-30T02:43:26.211Z,10.80
2018-12-30T02:48:31.539Z,10.82
2018-12-30T02:58:45.579Z,10.78
2018-12-30T03:03:51.879Z,10.69
2018-12-30T03:08:58.535Z,10.72
2018-12-30T03:14:03.886Z,10.55
2018-12-30T03:19:09.670Z,10.70
2018-12-30T03:24:14.998Z,10.55
2018-12-30T03:29:20.454Z,10.50
2018-12-30T03:40:03.918Z,10.54
2018-12-30T03:45:09.233Z,10.35
2018-12-30T03:50:14.643Z,10.52
2018-12-30T03:55:20.178Z,10.62
2018-12-30T04:05:33.330Z,10.56
2018-12-30T04:10:38.541Z,10.56
2018-12-30T04:15:43.966Z,10.72
2018-12-30T04:20:49.280Z,10.80
2018-12-30T04:25:54.540Z,10.83
2018-12-30T04:30:59.815Z,10.94
2018-12-30T04:36:05.091Z,11.00
2018-12-30T04:41:10.340Z,10.92
2018-12-30T04:46:15.753Z,10.87
2018-12-30T04:51:21.042Z,10.83
2018-12-30T04:56:26.344Z,10.61
2018-12-30T05:01:31.574Z,10.43
2018-12-30T05:06:36.827Z,10.50
2018-12-30T05:11:42.262Z,10.82
2018-12-30T05:16:47.619Z,11.12
2018-12-30T05:21:52.890Z,11.27
2018-12-30T05:26:58.230Z,11.42
2018-12-30T05:32:03.469Z,11.17
2018-12-30T05:37:08.822Z,11.30
2018-12-30T05:42:14.122Z,11.43
2018-12-30T05:47:19.494Z,11.51
2018-12-30T05:52:24.870Z,11.64
2018-12-30T05:57:30.145Z,11.34
2018-12-30T06:02:35.389Z,11.20
2018-12-30T06:07:40.659Z,11.20
2018-12-30T06:12:45.914Z,11.24
2018-12-30T06:17:51.391Z,11.22
2018-12-30T06:22:56.741Z,11.26
2018-12-30T06:28:02.099Z,11.26
2018-12-30T06:33:07.434Z,11.06
2018-12-30T06:38:12.758Z,11.25
2018-12-30T06:43:18.210Z,11.15
2018-12-30T06:48:24.091Z,11.00
2018-12-30T06:53:29.375Z,10.92
2018-12-30T06:58:34.609Z,10.85
2018-12-30T07:03:39.834Z,10.89
2018-12-30T07:08:45.108Z,10.85
2018-12-30T07:13:50.370Z,10.77
2018-12-30T07:18:55.734Z,10.78
2018-12-30T07:24:01.126Z,10.66
2018-12-30T07:29:06.564Z,10.58
2018-12-30T07:34:11.919Z,10.65
2018-12-30T07:39:17.229Z,10.68
2018-12-30T07:44:22.590Z,10.84
2018-12-30T07:49:27.945Z,10.73
2018-12-30T07:54:33.263Z,10.82
2018-12-30T07:59:38.655Z,10.82
2018-12-30T08:04:44.194Z,10.95
2018-12-30T08:09:49.774Z,11.01
2018-12-30T08:14:55.259Z,10.94
2018-12-30T08:20:01.915Z,10.87
2018-12-30T08:25:08.799Z,10.68
2018-12-30T08:30:14.168Z,10.62
2018-12-30T08:35:19.780Z,10.69
2018-12-30T08:40:25.279Z,10.88
2018-12-30T08:45:30.820Z,11.06
2018-12-30T08:50:36.350Z,10.96
2018-12-30T08:55:41.789Z,10.94
2018-12-30T09:00:47.305Z,10.90
2018-12-30T09:05:52.857Z,10.97
2018-12-30T09:10:58.346Z,10.98
2018-12-30T09:16:03.845Z,10.96
2018-12-30T09:21:09.336Z,10.99
2018-12-30T09:31:55.280Z,10.97
2018-12-30T09:42:40.358Z,11.10
2018-12-30T09:47:45.871Z,11.15
2018-12-30T09:52:51.375Z,11.07
2018-12-30T09:57:57.147Z,11.19
2018-12-30T10:03:02.616Z,11.21
2018-12-30T10:08:08.114Z,11.03
2018-12-30T10:13:13.800Z,10.88
2018-12-30T10:18:19.515Z,10.95
2018-12-30T10:23:25.065Z,11.02
2018-12-30T10:28:30.473Z,11.25
2018-12-30T10:33:35.898Z,11.25
2018-12-30T10:38:44.076Z,11.18
2018-12-30T10:43:49.520Z,11.22
2018-12-30T10:48:55.073Z,11.11
2018-12-30T10:59:38.679Z,10.93
2018-12-30T11:04:44.206Z,10.86
2018-12-30T11:09:49.667Z,10.93
2018-12-30T11:14:55.146Z,11.02
2018-12-30T11:20:00.839Z,11.13
2018-12-30T11:25:07.455Z,11.24
2018-12-30T11:30:13.057Z,11.30
2018-12-30T11:36:49.958Z,11.27
2018-12-30T11:40:26.727Z,11.29
2018-12-30T11:45:32.474Z,11.33
2018-12-30T11:50:38.137Z,11.21
2018-12-30T11:55:43.656Z,11.31
2018-12-30T12:00:49.284Z,11.28
2018-12-30T12:05:54.798Z,11.28
2018-12-30T12:11:02.337Z,11.35
2018-12-30T12:21:17.785Z,11.19
2018-12-30T12:26:23.423Z,11.22
2018-12-30T12:31:29.026Z,11.19
2018-12-30T12:36:34.544Z,11.13
2018-12-30T12:41:40.404Z,11.31
2018-12-30T12:46:46.025Z,11.22
2018-12-30T12:51:51.602Z,11.24
2018-12-30T12:56:57.213Z,11.19
2018-12-30T13:02:02.801Z,11.10
2018-12-30T13:07:08.562Z,11.18
2018-12-30T13:12:14.342Z,11.09
2018-12-30T13:17:20.022Z,11.05
2018-12-30T13:22:25.902Z,10.89
2018-12-30T13:27:31.402Z,11.08
2018-12-30T13:32:37.113Z,11.19
2018-12-30T13:37:42.822Z,11.30
2018-12-30T13:42:48.462Z,11.36
2018-12-30T13:47:54.167Z,11.31
2018-12-30T13:52:59.844Z,11.15
2018-12-30T13:58:05.542Z,11.08
2018-12-30T14:03:11.124Z,10.95
2018-12-30T14:08:17.002Z,10.98
2018-12-30T14:13:22.682Z,11.02
2018-12-30T14:18:28.303Z,11.11
2018-12-30T14:23:34.104Z,11.26
2018-12-30T14:28:39.541Z,11.35
2018-12-30T14:33:45.181Z,11.45
2018-12-30T14:38:50.901Z,11.39
2018-12-30T14:43:56.645Z,11.39
2018-12-30T14:49:02.141Z,11.33
2018-12-30T14:54:08.513Z,11.40
2018-12-30T14:59:14.042Z,11.45
2018-12-30T15:04:19.746Z,11.34
2018-12-30T15:09:25.466Z,11.38
2018-12-30T15:14:31.314Z,11.21
2018-12-30T15:19:36.894Z,11.16
2018-12-30T15:24:42.573Z,11.38
2018-12-30T15:29:48.122Z,11.55
2018-12-30T15:34:53.794Z,11.41
2018-12-30T15:45:36.447Z,11.18
2018-12-30T15:56:03.547Z,11.26
2018-12-30T16:01:08.978Z,11.24
2018-12-30T16:06:14.808Z,11.02
2018-12-30T16:11:20.397Z,11.10
2018-12-30T16:16:26.117Z,11.34
2018-12-30T16:21:31.988Z,11.08
2018-12-30T16:26:37.394Z,10.94
2018-12-30T16:37:00.845Z,10.67
2018-12-30T16:42:06.558Z,10.61
2018-12-30T16:52:29.695Z,10.79
2018-12-30T17:03:06.855Z,10.81
2018-12-30T17:08:12.300Z,10.88
2018-12-30T17:13:17.839Z,10.98
2018-12-30T17:18:23.406Z,11.15
2018-12-30T17:28:46.304Z,10.58
2018-12-30T17:39:23.746Z,10.71
2018-12-30T17:44:29.255Z,10.74
2018-12-30T17:55:12.355Z,11.17
2018-12-30T18:05:57.423Z,11.00
2018-12-30T18:11:03.161Z,11.11
2018-12-30T18:16:08.743Z,11.19
2018-12-30T18:21:14.199Z,11.17
2018-12-30T18:26:20.387Z,11.01
2018-12-30T18:31:26.912Z,10.93
2018-12-30T18:36:33.466Z,10.83
2018-12-30T18:41:39.093Z,10.91
2018-12-30T18:46:44.833Z,11.18
2018-12-30T18:51:50.197Z,10.95
2018-12-30T18:56:56.122Z,10.88
2018-12-30T19:02:02.308Z,11.06
2018-12-30T19:07:08.105Z,11.23
2018-12-30T19:12:13.623Z,11.31
2018-12-30T19:17:19.514Z,11.40
2018-12-30T19:27:32.433Z,11.68
2018-12-30T19:32:37.889Z,11.72
2018-12-30T19:37:43.650Z,11.83
2018-12-30T19:42:49.109Z,11.75
2018-12-30T19:53:12.459Z,11.38
2018-12-30T19:58:17.928Z,11.33
2018-12-30T20:03:23.429Z,11.48
2018-12-30T20:08:29.049Z,11.47
2018-12-30T20:19:11.932Z,11.56
2018-12-30T20:29:48.945Z,11.69
2018-12-30T20:34:54.689Z,11.72
2018-12-30T20:40:00.285Z,11.62
2018-12-30T20:45:06.307Z,11.25
2018-12-30T20:50:11.985Z,11.26
2018-12-30T20:55:17.749Z,11.33
2018-12-30T21:00:23.893Z,11.24
2018-12-30T21:10:55.210Z,11.21
2018-12-30T21:16:00.746Z,11.22
2018-12-30T21:21:06.411Z,11.26
2018-12-30T21:26:11.895Z,11.04
2018-12-30T21:36:35.210Z,11.30
2018-12-30T21:41:40.758Z,11.50
2018-12-30T21:46:46.478Z,11.46
2018-12-30T21:51:52.099Z,11.19
2018-12-30T21:56:57.669Z,11.19
2018-12-30T22:02:03.578Z,11.03
2018-12-30T22:07:09.178Z,11.10
2018-12-30T22:12:14.899Z,11.13
2018-12-30T22:17:20.619Z,11.27
2018-12-30T22:22:26.158Z,11.02
2018-12-30T22:27:31.878Z,10.95
2018-12-30T22:32:37.418Z,10.85
2018-12-30T22:37:44.498Z,10.74
2018-12-30T22:42:49.908Z,10.62
2018-12-30T22:47:56.175Z,10.75
2018-12-30T22:53:01.680Z,10.82
2018-12-30T22:58:07.318Z,10.83
2018-12-30T23:03:12.999Z,10.83
2018-12-30T23:08:18.758Z,10.84
2018-12-30T23:13:24.590Z,10.66
2018-12-30T23:18:30.458Z,10.65
2018-12-30T23:23:35.937Z,10.66
2018-12-30T23:28:41.478Z,10.65
2018-12-30T23:33:47.101Z,10.80
2018-12-30T23:38:52.741Z,10.79
2018-12-30T23:43:58.222Z,10.54
2018-12-30T23:49:03.979Z,10.42
2018-12-30T23:54:09.498Z,10.24
2018-12-30T23:59:15.159Z,10.24
